<?xml version="1.0" encoding="UTF-8" standalone="no" ?>
<gpx xmlns="http://www.topografix.com/GPX/1/1" xmlns:xsi="http://www.w3.org/2001/XMLSchema-instance" xsi:schemaLocation="http://www.topografix.com/GPX/1/1 http://www.topografix.com/GPX/1/1/gpx.xsd" version="1.1" creator="VisuGPX - https://www.visugpx.com">
  <metadata>
    <name>12405766-L 'Aven</name>
  </metadata>
  <trk>
    <name><![CDATA[12405766-L 'Aven]]></name>
    <trkseg>
      <trkpt lat="47.84795" lon="-3.74948">
        <ele>7</ele>
        <time>2021-01-05T10:18:48Z</time>
      </trkpt>
      <trkpt lat="47.84792" lon="-3.74954">
        <ele>7</ele>
        <time>2021-01-05T10:18:55Z</time>
      </trkpt>
      <trkpt lat="47.84785" lon="-3.74956">
        <ele>7</ele>
        <time>2021-01-05T10:19:04Z</time>
      </trkpt>
      <trkpt lat="47.84774" lon="-3.74973">
        <ele>7</ele>
        <time>2021-01-05T10:19:25Z</time>
      </trkpt>
      <trkpt lat="47.84768" lon="-3.74993">
        <ele>7</ele>
        <time>2021-01-05T10:19:45Z</time>
      </trkpt>
      <trkpt lat="47.84752" lon="-3.75022">
        <ele>6</ele>
        <time>2021-01-05T10:20:19Z</time>
      </trkpt>
      <trkpt lat="47.84739" lon="-3.75058">
        <ele>7</ele>
        <time>2021-01-05T10:20:55Z</time>
      </trkpt>
      <trkpt lat="47.84731" lon="-3.75089">
        <ele>7</ele>
        <time>2021-01-05T10:21:25Z</time>
      </trkpt>
      <trkpt lat="47.84725" lon="-3.75127">
        <ele>7</ele>
        <time>2021-01-05T10:22:00Z</time>
      </trkpt>
      <trkpt lat="47.84723" lon="-3.75173">
        <ele>9</ele>
        <time>2021-01-05T10:22:41Z</time>
      </trkpt>
      <trkpt lat="47.84723" lon="-3.75183">
        <ele>11</ele>
        <time>2021-01-05T10:22:50Z</time>
      </trkpt>
      <trkpt lat="47.8472" lon="-3.75193">
        <ele>12</ele>
        <time>2021-01-05T10:23:00Z</time>
      </trkpt>
      <trkpt lat="47.84705" lon="-3.75194">
        <ele>12</ele>
        <time>2021-01-05T10:23:20Z</time>
      </trkpt>
      <trkpt lat="47.84683" lon="-3.75219">
        <ele>15</ele>
        <time>2021-01-05T10:23:57Z</time>
      </trkpt>
      <trkpt lat="47.8467" lon="-3.7524">
        <ele>16</ele>
        <time>2021-01-05T10:24:23Z</time>
      </trkpt>
      <trkpt lat="47.84661" lon="-3.75237">
        <ele>15</ele>
        <time>2021-01-05T10:24:35Z</time>
      </trkpt>
      <trkpt lat="47.84656" lon="-3.75238">
        <ele>15</ele>
        <time>2021-01-05T10:24:42Z</time>
      </trkpt>
      <trkpt lat="47.84641" lon="-3.75229">
        <ele>14</ele>
        <time>2021-01-05T10:25:03Z</time>
      </trkpt>
      <trkpt lat="47.8461" lon="-3.75251">
        <ele>14</ele>
        <time>2021-01-05T10:25:49Z</time>
      </trkpt>
      <trkpt lat="47.84589" lon="-3.75262">
        <ele>15</ele>
        <time>2021-01-05T10:26:19Z</time>
      </trkpt>
      <trkpt lat="47.84568" lon="-3.75258">
        <ele>13</ele>
        <time>2021-01-05T10:26:47Z</time>
      </trkpt>
      <trkpt lat="47.84535" lon="-3.75258">
        <ele>10</ele>
        <time>2021-01-05T10:27:31Z</time>
      </trkpt>
      <trkpt lat="47.845" lon="-3.75242">
        <ele>6</ele>
        <time>2021-01-05T10:28:20Z</time>
      </trkpt>
      <trkpt lat="47.8447" lon="-3.7526">
        <ele>8</ele>
        <time>2021-01-05T10:29:03Z</time>
      </trkpt>
      <trkpt lat="47.84466" lon="-3.75296">
        <ele>10</ele>
        <time>2021-01-05T10:29:36Z</time>
      </trkpt>
      <trkpt lat="47.84485" lon="-3.75406">
        <ele>17</ele>
        <time>2021-01-05T10:31:17Z</time>
      </trkpt>
      <trkpt lat="47.84466" lon="-3.75451">
        <ele>16</ele>
        <time>2021-01-05T10:32:05Z</time>
      </trkpt>
      <trkpt lat="47.84411" lon="-3.75513">
        <ele>13</ele>
        <time>2021-01-05T10:33:37Z</time>
      </trkpt>
      <trkpt lat="47.84393" lon="-3.75536">
        <ele>16</ele>
        <time>2021-01-05T10:34:09Z</time>
      </trkpt>
      <trkpt lat="47.84368" lon="-3.75535">
        <ele>17</ele>
        <time>2021-01-05T10:34:42Z</time>
      </trkpt>
      <trkpt lat="47.84372" lon="-3.755">
        <ele>15</ele>
        <time>2021-01-05T10:35:14Z</time>
      </trkpt>
      <trkpt lat="47.84399" lon="-3.75478">
        <ele>13</ele>
        <time>2021-01-05T10:35:55Z</time>
      </trkpt>
      <trkpt lat="47.84424" lon="-3.75441">
        <ele>14</ele>
        <time>2021-01-05T10:36:42Z</time>
      </trkpt>
      <trkpt lat="47.84436" lon="-3.75387">
        <ele>14</ele>
        <time>2021-01-05T10:37:33Z</time>
      </trkpt>
      <trkpt lat="47.84425" lon="-3.75322">
        <ele>12</ele>
        <time>2021-01-05T10:38:33Z</time>
      </trkpt>
      <trkpt lat="47.8442" lon="-3.75314">
        <ele>11</ele>
        <time>2021-01-05T10:38:43Z</time>
      </trkpt>
      <trkpt lat="47.8441" lon="-3.75316">
        <ele>12</ele>
        <time>2021-01-05T10:38:56Z</time>
      </trkpt>
      <trkpt lat="47.84402" lon="-3.7531">
        <ele>12</ele>
        <time>2021-01-05T10:39:08Z</time>
      </trkpt>
      <trkpt lat="47.84402" lon="-3.75284">
        <ele>12</ele>
        <time>2021-01-05T10:39:31Z</time>
      </trkpt>
      <trkpt lat="47.84403" lon="-3.7527">
        <ele>12</ele>
        <time>2021-01-05T10:39:44Z</time>
      </trkpt>
      <trkpt lat="47.84415" lon="-3.7526">
        <ele>10</ele>
        <time>2021-01-05T10:40:02Z</time>
      </trkpt>
      <trkpt lat="47.84429" lon="-3.75205">
        <ele>13</ele>
        <time>2021-01-05T10:40:55Z</time>
      </trkpt>
      <trkpt lat="47.84469" lon="-3.75176">
        <ele>9</ele>
        <time>2021-01-05T10:41:54Z</time>
      </trkpt>
      <trkpt lat="47.84478" lon="-3.75167">
        <ele>8</ele>
        <time>2021-01-05T10:42:09Z</time>
      </trkpt>
      <trkpt lat="47.84489" lon="-3.75125">
        <ele>6</ele>
        <time>2021-01-05T10:42:49Z</time>
      </trkpt>
      <trkpt lat="47.84491" lon="-3.75114">
        <ele>6</ele>
        <time>2021-01-05T10:42:59Z</time>
      </trkpt>
      <trkpt lat="47.84488" lon="-3.75102">
        <ele>6</ele>
        <time>2021-01-05T10:43:11Z</time>
      </trkpt>
      <trkpt lat="47.84469" lon="-3.75082">
        <ele>9</ele>
        <time>2021-01-05T10:43:42Z</time>
      </trkpt>
      <trkpt lat="47.84452" lon="-3.75043">
        <ele>11</ele>
        <time>2021-01-05T10:44:24Z</time>
      </trkpt>
      <trkpt lat="47.84415" lon="-3.75007">
        <ele>13</ele>
        <time>2021-01-05T10:45:23Z</time>
      </trkpt>
      <trkpt lat="47.84392" lon="-3.74992">
        <ele>14</ele>
        <time>2021-01-05T10:45:56Z</time>
      </trkpt>
      <trkpt lat="47.84343" lon="-3.74994">
        <ele>18</ele>
        <time>2021-01-05T10:47:02Z</time>
      </trkpt>
      <trkpt lat="47.8433" lon="-3.75">
        <ele>19</ele>
        <time>2021-01-05T10:47:20Z</time>
      </trkpt>
      <trkpt lat="47.84308" lon="-3.75026">
        <ele>22</ele>
        <time>2021-01-05T10:47:57Z</time>
      </trkpt>
      <trkpt lat="47.84267" lon="-3.74996">
        <ele>23</ele>
        <time>2021-01-05T10:48:58Z</time>
      </trkpt>
      <trkpt lat="47.84256" lon="-3.74984">
        <ele>23</ele>
        <time>2021-01-05T10:49:16Z</time>
      </trkpt>
      <trkpt lat="47.84248" lon="-3.74962">
        <ele>21</ele>
        <time>2021-01-05T10:49:39Z</time>
      </trkpt>
      <trkpt lat="47.84232" lon="-3.74933">
        <ele>18</ele>
        <time>2021-01-05T10:50:12Z</time>
      </trkpt>
      <trkpt lat="47.84204" lon="-3.74897">
        <ele>14</ele>
        <time>2021-01-05T10:51:02Z</time>
      </trkpt>
      <trkpt lat="47.84197" lon="-3.74868">
        <ele>12</ele>
        <time>2021-01-05T10:51:29Z</time>
      </trkpt>
      <trkpt lat="47.84205" lon="-3.74876">
        <ele>12</ele>
        <time>2021-01-05T10:51:42Z</time>
      </trkpt>
      <trkpt lat="47.84187" lon="-3.74856">
        <ele>10</ele>
        <time>2021-01-05T10:52:12Z</time>
      </trkpt>
      <trkpt lat="47.84131" lon="-3.74857">
        <ele>9</ele>
        <time>2021-01-05T10:53:27Z</time>
      </trkpt>
      <trkpt lat="47.84068" lon="-3.7492">
        <ele>10</ele>
        <time>2021-01-05T10:55:08Z</time>
      </trkpt>
      <trkpt lat="47.84008" lon="-3.75">
        <ele>10</ele>
        <time>2021-01-05T10:56:56Z</time>
      </trkpt>
      <trkpt lat="47.83985" lon="-3.75037">
        <ele>7</ele>
        <time>2021-01-05T10:57:41Z</time>
      </trkpt>
      <trkpt lat="47.83983" lon="-3.75097">
        <ele>7</ele>
        <time>2021-01-05T10:58:35Z</time>
      </trkpt>
      <trkpt lat="47.83976" lon="-3.75126">
        <ele>7</ele>
        <time>2021-01-05T10:59:02Z</time>
      </trkpt>
      <trkpt lat="47.83944" lon="-3.75161">
        <ele>5</ele>
        <time>2021-01-05T10:59:55Z</time>
      </trkpt>
      <trkpt lat="47.83936" lon="-3.75219">
        <ele>5</ele>
        <time>2021-01-05T11:00:48Z</time>
      </trkpt>
      <trkpt lat="47.83917" lon="-3.75258">
        <ele>4</ele>
        <time>2021-01-05T11:01:31Z</time>
      </trkpt>
      <trkpt lat="47.83923" lon="-3.75301">
        <ele>4</ele>
        <time>2021-01-05T11:02:11Z</time>
      </trkpt>
      <trkpt lat="47.83937" lon="-3.75338">
        <ele>5</ele>
        <time>2021-01-05T11:02:49Z</time>
      </trkpt>
      <trkpt lat="47.83948" lon="-3.7535">
        <ele>5</ele>
        <time>2021-01-05T11:03:07Z</time>
      </trkpt>
      <trkpt lat="47.83966" lon="-3.75353">
        <ele>6</ele>
        <time>2021-01-05T11:03:31Z</time>
      </trkpt>
      <trkpt lat="47.83995" lon="-3.75347">
        <ele>7</ele>
        <time>2021-01-05T11:04:10Z</time>
      </trkpt>
      <trkpt lat="47.84076" lon="-3.75378">
        <ele>7</ele>
        <time>2021-01-05T11:06:02Z</time>
      </trkpt>
      <trkpt lat="47.84056" lon="-3.75416">
        <ele>5</ele>
        <time>2021-01-05T11:06:45Z</time>
      </trkpt>
      <trkpt lat="47.84036" lon="-3.75418">
        <ele>6</ele>
        <time>2021-01-05T11:07:12Z</time>
      </trkpt>
      <trkpt lat="47.83992" lon="-3.75415">
        <ele>6</ele>
        <time>2021-01-05T11:08:10Z</time>
      </trkpt>
      <trkpt lat="47.83978" lon="-3.75432">
        <ele>6</ele>
        <time>2021-01-05T11:08:35Z</time>
      </trkpt>
      <trkpt lat="47.83972" lon="-3.75444">
        <ele>7</ele>
        <time>2021-01-05T11:08:48Z</time>
      </trkpt>
      <trkpt lat="47.83969" lon="-3.75461">
        <ele>7</ele>
        <time>2021-01-05T11:09:04Z</time>
      </trkpt>
      <trkpt lat="47.83972" lon="-3.75502">
        <ele>8</ele>
        <time>2021-01-05T11:09:41Z</time>
      </trkpt>
      <trkpt lat="47.83971" lon="-3.75525">
        <ele>10</ele>
        <time>2021-01-05T11:10:01Z</time>
      </trkpt>
      <trkpt lat="47.83985" lon="-3.7558">
        <ele>14</ele>
        <time>2021-01-05T11:10:54Z</time>
      </trkpt>
      <trkpt lat="47.83991" lon="-3.75642">
        <ele>16</ele>
        <time>2021-01-05T11:11:50Z</time>
      </trkpt>
      <trkpt lat="47.83999" lon="-3.75676">
        <ele>17</ele>
        <time>2021-01-05T11:12:22Z</time>
      </trkpt>
      <trkpt lat="47.84014" lon="-3.7572">
        <ele>20</ele>
        <time>2021-01-05T11:13:07Z</time>
      </trkpt>
      <trkpt lat="47.83995" lon="-3.75717">
        <ele>20</ele>
        <time>2021-01-05T11:13:32Z</time>
      </trkpt>
      <trkpt lat="47.83975" lon="-3.75754">
        <ele>22</ele>
        <time>2021-01-05T11:14:15Z</time>
      </trkpt>
      <trkpt lat="47.83917" lon="-3.75749">
        <ele>24</ele>
        <time>2021-01-05T11:15:32Z</time>
      </trkpt>
      <trkpt lat="47.83907" lon="-3.75763">
        <ele>24</ele>
        <time>2021-01-05T11:15:50Z</time>
      </trkpt>
      <trkpt lat="47.83882" lon="-3.75831">
        <ele>29</ele>
        <time>2021-01-05T11:17:00Z</time>
      </trkpt>
      <trkpt lat="47.83873" lon="-3.75881">
        <ele>33</ele>
        <time>2021-01-05T11:17:46Z</time>
      </trkpt>
      <trkpt lat="47.83865" lon="-3.75894">
        <ele>34</ele>
        <time>2021-01-05T11:18:02Z</time>
      </trkpt>
      <trkpt lat="47.83771" lon="-3.75854">
        <ele>27</ele>
        <time>2021-01-05T11:20:13Z</time>
      </trkpt>
      <trkpt lat="47.83736" lon="-3.7585">
        <ele>23</ele>
        <time>2021-01-05T11:20:59Z</time>
      </trkpt>
      <trkpt lat="47.8366" lon="-3.75835">
        <ele>13</ele>
        <time>2021-01-05T11:22:42Z</time>
      </trkpt>
      <trkpt lat="47.83663" lon="-3.75811">
        <ele>13</ele>
        <time>2021-01-05T11:23:04Z</time>
      </trkpt>
      <trkpt lat="47.83659" lon="-3.75802">
        <ele>14</ele>
        <time>2021-01-05T11:23:13Z</time>
      </trkpt>
      <trkpt lat="47.83652" lon="-3.75777">
        <ele>14</ele>
        <time>2021-01-05T11:23:38Z</time>
      </trkpt>
      <trkpt lat="47.83646" lon="-3.75739">
        <ele>13</ele>
        <time>2021-01-05T11:24:12Z</time>
      </trkpt>
      <trkpt lat="47.83642" lon="-3.75735">
        <ele>13</ele>
        <time>2021-01-05T11:24:19Z</time>
      </trkpt>
      <trkpt lat="47.83637" lon="-3.75732">
        <ele>13</ele>
        <time>2021-01-05T11:24:26Z</time>
      </trkpt>
      <trkpt lat="47.83601" lon="-3.75731">
        <ele>10</ele>
        <time>2021-01-05T11:25:14Z</time>
      </trkpt>
      <trkpt lat="47.83598" lon="-3.75731">
        <ele>10</ele>
        <time>2021-01-05T11:25:18Z</time>
      </trkpt>
      <trkpt lat="47.83592" lon="-3.75733">
        <ele>10</ele>
        <time>2021-01-05T11:25:26Z</time>
      </trkpt>
      <trkpt lat="47.8359" lon="-3.75776">
        <ele>11</ele>
        <time>2021-01-05T11:26:05Z</time>
      </trkpt>
      <trkpt lat="47.83576" lon="-3.75842">
        <ele>12</ele>
        <time>2021-01-05T11:27:07Z</time>
      </trkpt>
      <trkpt lat="47.83564" lon="-3.75863">
        <ele>12</ele>
        <time>2021-01-05T11:27:32Z</time>
      </trkpt>
      <trkpt lat="47.83546" lon="-3.75888">
        <ele>11</ele>
        <time>2021-01-05T11:28:05Z</time>
      </trkpt>
      <trkpt lat="47.8354" lon="-3.75916">
        <ele>10</ele>
        <time>2021-01-05T11:28:31Z</time>
      </trkpt>
      <trkpt lat="47.83526" lon="-3.75945">
        <ele>11</ele>
        <time>2021-01-05T11:29:03Z</time>
      </trkpt>
      <trkpt lat="47.83516" lon="-3.75961">
        <ele>11</ele>
        <time>2021-01-05T11:29:22Z</time>
      </trkpt>
      <trkpt lat="47.83503" lon="-3.75971">
        <ele>12</ele>
        <time>2021-01-05T11:29:42Z</time>
      </trkpt>
      <trkpt lat="47.83499" lon="-3.75995">
        <ele>12</ele>
        <time>2021-01-05T11:30:04Z</time>
      </trkpt>
      <trkpt lat="47.83544" lon="-3.76003">
        <ele>11</ele>
        <time>2021-01-05T11:31:05Z</time>
      </trkpt>
      <trkpt lat="47.8355" lon="-3.75988">
        <ele>10</ele>
        <time>2021-01-05T11:31:20Z</time>
      </trkpt>
      <trkpt lat="47.83563" lon="-3.75979">
        <ele>10</ele>
        <time>2021-01-05T11:31:39Z</time>
      </trkpt>
      <trkpt lat="47.83582" lon="-3.75944">
        <ele>8</ele>
        <time>2021-01-05T11:32:20Z</time>
      </trkpt>
      <trkpt lat="47.83593" lon="-3.75938">
        <ele>9</ele>
        <time>2021-01-05T11:32:35Z</time>
      </trkpt>
      <trkpt lat="47.83602" lon="-3.75948">
        <ele>9</ele>
        <time>2021-01-05T11:32:50Z</time>
      </trkpt>
      <trkpt lat="47.83609" lon="-3.75964">
        <ele>10</ele>
        <time>2021-01-05T11:33:07Z</time>
      </trkpt>
      <trkpt lat="47.83604" lon="-3.75988">
        <ele>9</ele>
        <time>2021-01-05T11:33:30Z</time>
      </trkpt>
      <trkpt lat="47.83576" lon="-3.76053">
        <ele>11</ele>
        <time>2021-01-05T11:34:39Z</time>
      </trkpt>
      <trkpt lat="47.83567" lon="-3.76064">
        <ele>12</ele>
        <time>2021-01-05T11:34:55Z</time>
      </trkpt>
      <trkpt lat="47.83559" lon="-3.76079">
        <ele>13</ele>
        <time>2021-01-05T11:35:12Z</time>
      </trkpt>
      <trkpt lat="47.83551" lon="-3.76101">
        <ele>14</ele>
        <time>2021-01-05T11:35:34Z</time>
      </trkpt>
      <trkpt lat="47.83544" lon="-3.76103">
        <ele>14</ele>
        <time>2021-01-05T11:35:44Z</time>
      </trkpt>
      <trkpt lat="47.83537" lon="-3.76116">
        <ele>15</ele>
        <time>2021-01-05T11:35:59Z</time>
      </trkpt>
      <trkpt lat="47.83532" lon="-3.7612">
        <ele>15</ele>
        <time>2021-01-05T11:36:06Z</time>
      </trkpt>
      <trkpt lat="47.83525" lon="-3.7612">
        <ele>16</ele>
        <time>2021-01-05T11:36:16Z</time>
      </trkpt>
      <trkpt lat="47.83513" lon="-3.76115">
        <ele>17</ele>
        <time>2021-01-05T11:36:32Z</time>
      </trkpt>
      <trkpt lat="47.83475" lon="-3.76093">
        <ele>19</ele>
        <time>2021-01-05T11:37:27Z</time>
      </trkpt>
      <trkpt lat="47.83448" lon="-3.76095">
        <ele>21</ele>
        <time>2021-01-05T11:38:03Z</time>
      </trkpt>
      <trkpt lat="47.83411" lon="-3.76103">
        <ele>24</ele>
        <time>2021-01-05T11:38:53Z</time>
      </trkpt>
      <trkpt lat="47.83361" lon="-3.76094">
        <ele>26</ele>
        <time>2021-01-05T11:40:00Z</time>
      </trkpt>
      <trkpt lat="47.83343" lon="-3.761">
        <ele>27</ele>
        <time>2021-01-05T11:40:24Z</time>
      </trkpt>
      <trkpt lat="47.83311" lon="-3.76097">
        <ele>29</ele>
        <time>2021-01-05T11:41:07Z</time>
      </trkpt>
      <trkpt lat="47.83303" lon="-3.76098">
        <ele>29</ele>
        <time>2021-01-05T11:41:18Z</time>
      </trkpt>
      <trkpt lat="47.83281" lon="-3.76092">
        <ele>30</ele>
        <time>2021-01-05T11:41:48Z</time>
      </trkpt>
      <trkpt lat="47.83272" lon="-3.76085">
        <ele>31</ele>
        <time>2021-01-05T11:42:01Z</time>
      </trkpt>
      <trkpt lat="47.83261" lon="-3.76085">
        <ele>31</ele>
        <time>2021-01-05T11:42:16Z</time>
      </trkpt>
      <trkpt lat="47.83255" lon="-3.7608">
        <ele>32</ele>
        <time>2021-01-05T11:42:25Z</time>
      </trkpt>
      <trkpt lat="47.83242" lon="-3.76026">
        <ele>31</ele>
        <time>2021-01-05T11:43:17Z</time>
      </trkpt>
      <trkpt lat="47.83255" lon="-3.7608">
        <ele>32</ele>
        <time>2021-01-05T11:44:08Z</time>
      </trkpt>
      <trkpt lat="47.83249" lon="-3.76079">
        <ele>32</ele>
        <time>2021-01-05T11:44:16Z</time>
      </trkpt>
      <trkpt lat="47.83229" lon="-3.76059">
        <ele>31</ele>
        <time>2021-01-05T11:44:48Z</time>
      </trkpt>
      <trkpt lat="47.83194" lon="-3.76032">
        <ele>30</ele>
        <time>2021-01-05T11:45:41Z</time>
      </trkpt>
      <trkpt lat="47.83191" lon="-3.76025">
        <ele>30</ele>
        <time>2021-01-05T11:45:48Z</time>
      </trkpt>
      <trkpt lat="47.83152" lon="-3.76014">
        <ele>30</ele>
        <time>2021-01-05T11:46:41Z</time>
      </trkpt>
      <trkpt lat="47.83139" lon="-3.76005">
        <ele>30</ele>
        <time>2021-01-05T11:47:00Z</time>
      </trkpt>
      <trkpt lat="47.83114" lon="-3.75982">
        <ele>31</ele>
        <time>2021-01-05T11:47:39Z</time>
      </trkpt>
      <trkpt lat="47.83103" lon="-3.75977">
        <ele>31</ele>
        <time>2021-01-05T11:47:55Z</time>
      </trkpt>
      <trkpt lat="47.83098" lon="-3.75978">
        <ele>32</ele>
        <time>2021-01-05T11:48:02Z</time>
      </trkpt>
      <trkpt lat="47.83095" lon="-3.75983">
        <ele>32</ele>
        <time>2021-01-05T11:48:08Z</time>
      </trkpt>
      <trkpt lat="47.83088" lon="-3.7601">
        <ele>32</ele>
        <time>2021-01-05T11:48:33Z</time>
      </trkpt>
      <trkpt lat="47.83083" lon="-3.76037">
        <ele>33</ele>
        <time>2021-01-05T11:48:59Z</time>
      </trkpt>
      <trkpt lat="47.83075" lon="-3.76031">
        <ele>33</ele>
        <time>2021-01-05T11:49:11Z</time>
      </trkpt>
      <trkpt lat="47.83057" lon="-3.76101">
        <ele>35</ele>
        <time>2021-01-05T11:50:18Z</time>
      </trkpt>
      <trkpt lat="47.83047" lon="-3.76132">
        <ele>36</ele>
        <time>2021-01-05T11:50:48Z</time>
      </trkpt>
      <trkpt lat="47.83015" lon="-3.76204">
        <ele>37</ele>
        <time>2021-01-05T11:52:06Z</time>
      </trkpt>
      <trkpt lat="47.83006" lon="-3.76229">
        <ele>37</ele>
        <time>2021-01-05T11:52:31Z</time>
      </trkpt>
      <trkpt lat="47.82992" lon="-3.76278">
        <ele>36</ele>
        <time>2021-01-05T11:53:19Z</time>
      </trkpt>
      <trkpt lat="47.82974" lon="-3.76321">
        <ele>34</ele>
        <time>2021-01-05T11:54:04Z</time>
      </trkpt>
      <trkpt lat="47.82942" lon="-3.76388">
        <ele>34</ele>
        <time>2021-01-05T11:55:18Z</time>
      </trkpt>
      <trkpt lat="47.82917" lon="-3.76535">
        <ele>33</ele>
        <time>2021-01-05T11:57:34Z</time>
      </trkpt>
      <trkpt lat="47.82868" lon="-3.76515">
        <ele>35</ele>
        <time>2021-01-05T11:58:42Z</time>
      </trkpt>
      <trkpt lat="47.82851" lon="-3.76506">
        <ele>36</ele>
        <time>2021-01-05T11:59:06Z</time>
      </trkpt>
      <trkpt lat="47.82833" lon="-3.76512">
        <ele>37</ele>
        <time>2021-01-05T11:59:30Z</time>
      </trkpt>
      <trkpt lat="47.82815" lon="-3.76514">
        <ele>36</ele>
        <time>2021-01-05T11:59:54Z</time>
      </trkpt>
      <trkpt lat="47.828" lon="-3.76521">
        <ele>36</ele>
        <time>2021-01-05T12:00:15Z</time>
      </trkpt>
      <trkpt lat="47.82693" lon="-3.76452">
        <ele>32</ele>
        <time>2021-01-05T12:02:51Z</time>
      </trkpt>
      <trkpt lat="47.82686" lon="-3.76466">
        <ele>33</ele>
        <time>2021-01-05T12:03:07Z</time>
      </trkpt>
      <trkpt lat="47.82655" lon="-3.76455">
        <ele>31</ele>
        <time>2021-01-05T12:03:49Z</time>
      </trkpt>
      <trkpt lat="47.82629" lon="-3.76455">
        <ele>31</ele>
        <time>2021-01-05T12:04:24Z</time>
      </trkpt>
      <trkpt lat="47.82589" lon="-3.76464">
        <ele>29</ele>
        <time>2021-01-05T12:05:18Z</time>
      </trkpt>
      <trkpt lat="47.82533" lon="-3.76491">
        <ele>29</ele>
        <time>2021-01-05T12:06:36Z</time>
      </trkpt>
      <trkpt lat="47.8252" lon="-3.765">
        <ele>29</ele>
        <time>2021-01-05T12:06:56Z</time>
      </trkpt>
      <trkpt lat="47.82508" lon="-3.76501">
        <ele>29</ele>
        <time>2021-01-05T12:07:12Z</time>
      </trkpt>
      <trkpt lat="47.82473" lon="-3.76493">
        <ele>28</ele>
        <time>2021-01-05T12:07:59Z</time>
      </trkpt>
      <trkpt lat="47.8245" lon="-3.7648">
        <ele>28</ele>
        <time>2021-01-05T12:08:32Z</time>
      </trkpt>
      <trkpt lat="47.82421" lon="-3.76454">
        <ele>28</ele>
        <time>2021-01-05T12:09:17Z</time>
      </trkpt>
      <trkpt lat="47.82387" lon="-3.76435">
        <ele>27</ele>
        <time>2021-01-05T12:10:05Z</time>
      </trkpt>
      <trkpt lat="47.82363" lon="-3.76429">
        <ele>27</ele>
        <time>2021-01-05T12:10:38Z</time>
      </trkpt>
      <trkpt lat="47.82345" lon="-3.7643">
        <ele>26</ele>
        <time>2021-01-05T12:11:02Z</time>
      </trkpt>
      <trkpt lat="47.82354" lon="-3.76415">
        <ele>26</ele>
        <time>2021-01-05T12:11:20Z</time>
      </trkpt>
      <trkpt lat="47.82345" lon="-3.7643">
        <ele>26</ele>
        <time>2021-01-05T12:11:38Z</time>
      </trkpt>
      <trkpt lat="47.82305" lon="-3.76445">
        <ele>26</ele>
        <time>2021-01-05T12:12:33Z</time>
      </trkpt>
      <trkpt lat="47.82291" lon="-3.76447">
        <ele>26</ele>
        <time>2021-01-05T12:12:52Z</time>
      </trkpt>
      <trkpt lat="47.82281" lon="-3.76436">
        <ele>26</ele>
        <time>2021-01-05T12:13:08Z</time>
      </trkpt>
      <trkpt lat="47.8224" lon="-3.76344">
        <ele>26</ele>
        <time>2021-01-05T12:14:47Z</time>
      </trkpt>
      <trkpt lat="47.82214" lon="-3.76294">
        <ele>27</ele>
        <time>2021-01-05T12:15:44Z</time>
      </trkpt>
      <trkpt lat="47.82198" lon="-3.76322">
        <ele>27</ele>
        <time>2021-01-05T12:16:17Z</time>
      </trkpt>
      <trkpt lat="47.82172" lon="-3.76353">
        <ele>28</ele>
        <time>2021-01-05T12:17:01Z</time>
      </trkpt>
      <trkpt lat="47.82153" lon="-3.76368">
        <ele>27</ele>
        <time>2021-01-05T12:17:30Z</time>
      </trkpt>
      <trkpt lat="47.82147" lon="-3.76368">
        <ele>27</ele>
        <time>2021-01-05T12:17:38Z</time>
      </trkpt>
      <trkpt lat="47.82144" lon="-3.76366">
        <ele>27</ele>
        <time>2021-01-05T12:17:42Z</time>
      </trkpt>
      <trkpt lat="47.82127" lon="-3.7634">
        <ele>27</ele>
        <time>2021-01-05T12:18:15Z</time>
      </trkpt>
      <trkpt lat="47.82118" lon="-3.76331">
        <ele>27</ele>
        <time>2021-01-05T12:18:29Z</time>
      </trkpt>
      <trkpt lat="47.82108" lon="-3.76326">
        <ele>27</ele>
        <time>2021-01-05T12:18:43Z</time>
      </trkpt>
      <trkpt lat="47.82102" lon="-3.76318">
        <ele>27</ele>
        <time>2021-01-05T12:18:54Z</time>
      </trkpt>
      <trkpt lat="47.82093" lon="-3.76299">
        <ele>27</ele>
        <time>2021-01-05T12:19:15Z</time>
      </trkpt>
      <trkpt lat="47.82087" lon="-3.76304">
        <ele>27</ele>
        <time>2021-01-05T12:19:24Z</time>
      </trkpt>
      <trkpt lat="47.82085" lon="-3.76302">
        <ele>27</ele>
        <time>2021-01-05T12:19:27Z</time>
      </trkpt>
      <trkpt lat="47.82059" lon="-3.76267">
        <ele>26</ele>
        <time>2021-01-05T12:20:14Z</time>
      </trkpt>
      <trkpt lat="47.82052" lon="-3.76268">
        <ele>26</ele>
        <time>2021-01-05T12:20:24Z</time>
      </trkpt>
      <trkpt lat="47.8204" lon="-3.76264">
        <ele>26</ele>
        <time>2021-01-05T12:20:40Z</time>
      </trkpt>
      <trkpt lat="47.82021" lon="-3.76268">
        <ele>26</ele>
        <time>2021-01-05T12:21:06Z</time>
      </trkpt>
      <trkpt lat="47.81964" lon="-3.76295">
        <ele>25</ele>
        <time>2021-01-05T12:22:25Z</time>
      </trkpt>
      <trkpt lat="47.81947" lon="-3.76298">
        <ele>25</ele>
        <time>2021-01-05T12:22:48Z</time>
      </trkpt>
      <trkpt lat="47.81938" lon="-3.76297">
        <ele>25</ele>
        <time>2021-01-05T12:23:00Z</time>
      </trkpt>
      <trkpt lat="47.81884" lon="-3.76273">
        <ele>23</ele>
        <time>2021-01-05T12:24:15Z</time>
      </trkpt>
      <trkpt lat="47.81853" lon="-3.76262">
        <ele>23</ele>
        <time>2021-01-05T12:24:58Z</time>
      </trkpt>
      <trkpt lat="47.81795" lon="-3.76234">
        <ele>21</ele>
        <time>2021-01-05T12:26:19Z</time>
      </trkpt>
      <trkpt lat="47.81767" lon="-3.76208">
        <ele>20</ele>
        <time>2021-01-05T12:27:03Z</time>
      </trkpt>
      <trkpt lat="47.81752" lon="-3.76189">
        <ele>20</ele>
        <time>2021-01-05T12:27:30Z</time>
      </trkpt>
      <trkpt lat="47.81747" lon="-3.76178">
        <ele>20</ele>
        <time>2021-01-05T12:27:42Z</time>
      </trkpt>
      <trkpt lat="47.81743" lon="-3.76177">
        <ele>20</ele>
        <time>2021-01-05T12:27:47Z</time>
      </trkpt>
      <trkpt lat="47.81721" lon="-3.76171">
        <ele>20</ele>
        <time>2021-01-05T12:28:17Z</time>
      </trkpt>
      <trkpt lat="47.8168" lon="-3.76161">
        <ele>19</ele>
        <time>2021-01-05T12:29:12Z</time>
      </trkpt>
      <trkpt lat="47.81655" lon="-3.7615">
        <ele>19</ele>
        <time>2021-01-05T12:29:47Z</time>
      </trkpt>
      <trkpt lat="47.81647" lon="-3.7614">
        <ele>19</ele>
        <time>2021-01-05T12:30:01Z</time>
      </trkpt>
      <trkpt lat="47.81638" lon="-3.76135">
        <ele>19</ele>
        <time>2021-01-05T12:30:14Z</time>
      </trkpt>
      <trkpt lat="47.81603" lon="-3.76122">
        <ele>19</ele>
        <time>2021-01-05T12:31:02Z</time>
      </trkpt>
      <trkpt lat="47.81576" lon="-3.76108">
        <ele>19</ele>
        <time>2021-01-05T12:31:40Z</time>
      </trkpt>
      <trkpt lat="47.81557" lon="-3.76094">
        <ele>21</ele>
        <time>2021-01-05T12:32:08Z</time>
      </trkpt>
      <trkpt lat="47.81545" lon="-3.76074">
        <ele>22</ele>
        <time>2021-01-05T12:32:32Z</time>
      </trkpt>
      <trkpt lat="47.81535" lon="-3.76082">
        <ele>23</ele>
        <time>2021-01-05T12:32:48Z</time>
      </trkpt>
      <trkpt lat="47.81484" lon="-3.76122">
        <ele>25</ele>
        <time>2021-01-05T12:34:04Z</time>
      </trkpt>
      <trkpt lat="47.81458" lon="-3.76093">
        <ele>29</ele>
        <time>2021-01-05T12:34:48Z</time>
      </trkpt>
      <trkpt lat="47.81415" lon="-3.76052">
        <ele>35</ele>
        <time>2021-01-05T12:35:56Z</time>
      </trkpt>
      <trkpt lat="47.81381" lon="-3.7603">
        <ele>36</ele>
        <time>2021-01-05T12:36:45Z</time>
      </trkpt>
      <trkpt lat="47.81325" lon="-3.76013">
        <ele>35</ele>
        <time>2021-01-05T12:38:02Z</time>
      </trkpt>
      <trkpt lat="47.81299" lon="-3.75998">
        <ele>35</ele>
        <time>2021-01-05T12:38:39Z</time>
      </trkpt>
      <trkpt lat="47.81287" lon="-3.75986">
        <ele>35</ele>
        <time>2021-01-05T12:38:58Z</time>
      </trkpt>
      <trkpt lat="47.81251" lon="-3.75943">
        <ele>36</ele>
        <time>2021-01-05T12:40:00Z</time>
      </trkpt>
      <trkpt lat="47.81235" lon="-3.7592">
        <ele>37</ele>
        <time>2021-01-05T12:40:29Z</time>
      </trkpt>
      <trkpt lat="47.81223" lon="-3.75908">
        <ele>37</ele>
        <time>2021-01-05T12:40:49Z</time>
      </trkpt>
      <trkpt lat="47.81212" lon="-3.75899">
        <ele>37</ele>
        <time>2021-01-05T12:41:05Z</time>
      </trkpt>
      <trkpt lat="47.81185" lon="-3.75889">
        <ele>38</ele>
        <time>2021-01-05T12:41:43Z</time>
      </trkpt>
      <trkpt lat="47.81171" lon="-3.75879">
        <ele>38</ele>
        <time>2021-01-05T12:42:03Z</time>
      </trkpt>
      <trkpt lat="47.81119" lon="-3.7582">
        <ele>40</ele>
        <time>2021-01-05T12:43:31Z</time>
      </trkpt>
      <trkpt lat="47.81098" lon="-3.75787">
        <ele>41</ele>
        <time>2021-01-05T12:44:11Z</time>
      </trkpt>
      <trkpt lat="47.81085" lon="-3.75774">
        <ele>42</ele>
        <time>2021-01-05T12:44:32Z</time>
      </trkpt>
      <trkpt lat="47.81037" lon="-3.75758">
        <ele>42</ele>
        <time>2021-01-05T12:45:38Z</time>
      </trkpt>
      <trkpt lat="47.80996" lon="-3.75873">
        <ele>41</ele>
        <time>2021-01-05T12:47:35Z</time>
      </trkpt>
      <trkpt lat="47.80989" lon="-3.75883">
        <ele>41</ele>
        <time>2021-01-05T12:47:48Z</time>
      </trkpt>
      <trkpt lat="47.80982" lon="-3.75884">
        <ele>41</ele>
        <time>2021-01-05T12:47:57Z</time>
      </trkpt>
      <trkpt lat="47.80951" lon="-3.75868">
        <ele>41</ele>
        <time>2021-01-05T12:48:41Z</time>
      </trkpt>
      <trkpt lat="47.80939" lon="-3.75864">
        <ele>41</ele>
        <time>2021-01-05T12:48:57Z</time>
      </trkpt>
      <trkpt lat="47.80947" lon="-3.75839">
        <ele>40</ele>
        <time>2021-01-05T12:49:22Z</time>
      </trkpt>
      <trkpt lat="47.80966" lon="-3.75748">
        <ele>42</ele>
        <time>2021-01-05T12:50:47Z</time>
      </trkpt>
      <trkpt lat="47.80977" lon="-3.75648">
        <ele>42</ele>
        <time>2021-01-05T12:52:18Z</time>
      </trkpt>
      <trkpt lat="47.80986" lon="-3.75586">
        <ele>43</ele>
        <time>2021-01-05T12:53:15Z</time>
      </trkpt>
      <trkpt lat="47.80992" lon="-3.75568">
        <ele>42</ele>
        <time>2021-01-05T12:53:33Z</time>
      </trkpt>
      <trkpt lat="47.81126" lon="-3.75371">
        <ele>36</ele>
        <time>2021-01-05T12:57:44Z</time>
      </trkpt>
      <trkpt lat="47.81133" lon="-3.75357">
        <ele>35</ele>
        <time>2021-01-05T12:58:00Z</time>
      </trkpt>
      <trkpt lat="47.81181" lon="-3.75231">
        <ele>34</ele>
        <time>2021-01-05T13:00:10Z</time>
      </trkpt>
      <trkpt lat="47.81189" lon="-3.75207">
        <ele>33</ele>
        <time>2021-01-05T13:00:34Z</time>
      </trkpt>
      <trkpt lat="47.81193" lon="-3.75181">
        <ele>33</ele>
        <time>2021-01-05T13:00:58Z</time>
      </trkpt>
      <trkpt lat="47.81193" lon="-3.75174">
        <ele>33</ele>
        <time>2021-01-05T13:01:04Z</time>
      </trkpt>
      <trkpt lat="47.81183" lon="-3.75174">
        <ele>33</ele>
        <time>2021-01-05T13:01:17Z</time>
      </trkpt>
      <trkpt lat="47.81156" lon="-3.75266">
        <ele>34</ele>
        <time>2021-01-05T13:02:47Z</time>
      </trkpt>
      <trkpt lat="47.81147" lon="-3.75288">
        <ele>34</ele>
        <time>2021-01-05T13:03:10Z</time>
      </trkpt>
      <trkpt lat="47.81142" lon="-3.7529">
        <ele>34</ele>
        <time>2021-01-05T13:03:17Z</time>
      </trkpt>
      <trkpt lat="47.81035" lon="-3.75224">
        <ele>37</ele>
        <time>2021-01-05T13:05:52Z</time>
      </trkpt>
      <trkpt lat="47.80966" lon="-3.75176">
        <ele>39</ele>
        <time>2021-01-05T13:07:33Z</time>
      </trkpt>
      <trkpt lat="47.80949" lon="-3.7517">
        <ele>40</ele>
        <time>2021-01-05T13:07:57Z</time>
      </trkpt>
      <trkpt lat="47.8096" lon="-3.75156">
        <ele>39</ele>
        <time>2021-01-05T13:08:16Z</time>
      </trkpt>
      <trkpt lat="47.80985" lon="-3.75115">
        <ele>37</ele>
        <time>2021-01-05T13:09:06Z</time>
      </trkpt>
      <trkpt lat="47.81012" lon="-3.75076">
        <ele>36</ele>
        <time>2021-01-05T13:09:56Z</time>
      </trkpt>
      <trkpt lat="47.8103" lon="-3.75034">
        <ele>35</ele>
        <time>2021-01-05T13:10:41Z</time>
      </trkpt>
      <trkpt lat="47.81041" lon="-3.75017">
        <ele>34</ele>
        <time>2021-01-05T13:11:02Z</time>
      </trkpt>
      <trkpt lat="47.81057" lon="-3.75005">
        <ele>34</ele>
        <time>2021-01-05T13:11:26Z</time>
      </trkpt>
      <trkpt lat="47.81067" lon="-3.74987">
        <ele>34</ele>
        <time>2021-01-05T13:11:47Z</time>
      </trkpt>
      <trkpt lat="47.81074" lon="-3.74967">
        <ele>34</ele>
        <time>2021-01-05T13:12:07Z</time>
      </trkpt>
      <trkpt lat="47.81084" lon="-3.74953">
        <ele>33</ele>
        <time>2021-01-05T13:12:25Z</time>
      </trkpt>
      <trkpt lat="47.81097" lon="-3.74928">
        <ele>33</ele>
        <time>2021-01-05T13:12:53Z</time>
      </trkpt>
      <trkpt lat="47.81114" lon="-3.74894">
        <ele>31</ele>
        <time>2021-01-05T13:13:31Z</time>
      </trkpt>
      <trkpt lat="47.81111" lon="-3.74889">
        <ele>31</ele>
        <time>2021-01-05T13:13:37Z</time>
      </trkpt>
      <trkpt lat="47.81014" lon="-3.74843">
        <ele>30</ele>
        <time>2021-01-05T13:15:53Z</time>
      </trkpt>
      <trkpt lat="47.80988" lon="-3.74833">
        <ele>30</ele>
        <time>2021-01-05T13:16:29Z</time>
      </trkpt>
      <trkpt lat="47.80948" lon="-3.74811">
        <ele>28</ele>
        <time>2021-01-05T13:17:26Z</time>
      </trkpt>
      <trkpt lat="47.80945" lon="-3.74805">
        <ele>28</ele>
        <time>2021-01-05T13:17:33Z</time>
      </trkpt>
      <trkpt lat="47.80943" lon="-3.74802">
        <ele>28</ele>
        <time>2021-01-05T13:17:36Z</time>
      </trkpt>
      <trkpt lat="47.8094" lon="-3.74781">
        <ele>27</ele>
        <time>2021-01-05T13:17:56Z</time>
      </trkpt>
      <trkpt lat="47.80927" lon="-3.74738">
        <ele>24</ele>
        <time>2021-01-05T13:18:38Z</time>
      </trkpt>
      <trkpt lat="47.80915" lon="-3.74675">
        <ele>18</ele>
        <time>2021-01-05T13:19:37Z</time>
      </trkpt>
      <trkpt lat="47.80906" lon="-3.74648">
        <ele>16</ele>
        <time>2021-01-05T13:20:04Z</time>
      </trkpt>
      <trkpt lat="47.80889" lon="-3.7461">
        <ele>15</ele>
        <time>2021-01-05T13:20:45Z</time>
      </trkpt>
      <trkpt lat="47.80885" lon="-3.74591">
        <ele>15</ele>
        <time>2021-01-05T13:21:02Z</time>
      </trkpt>
      <trkpt lat="47.80887" lon="-3.74583">
        <ele>14</ele>
        <time>2021-01-05T13:21:10Z</time>
      </trkpt>
      <trkpt lat="47.80888" lon="-3.74576">
        <ele>14</ele>
        <time>2021-01-05T13:21:17Z</time>
      </trkpt>
      <trkpt lat="47.80903" lon="-3.74579">
        <ele>12</ele>
        <time>2021-01-05T13:21:37Z</time>
      </trkpt>
      <trkpt lat="47.80911" lon="-3.74591">
        <ele>12</ele>
        <time>2021-01-05T13:21:52Z</time>
      </trkpt>
      <trkpt lat="47.80922" lon="-3.74589">
        <ele>11</ele>
        <time>2021-01-05T13:22:07Z</time>
      </trkpt>
      <trkpt lat="47.8093" lon="-3.74572">
        <ele>11</ele>
        <time>2021-01-05T13:22:25Z</time>
      </trkpt>
      <trkpt lat="47.80937" lon="-3.74565">
        <ele>10</ele>
        <time>2021-01-05T13:22:37Z</time>
      </trkpt>
      <trkpt lat="47.80977" lon="-3.74562">
        <ele>10</ele>
        <time>2021-01-05T13:23:30Z</time>
      </trkpt>
      <trkpt lat="47.80986" lon="-3.74564">
        <ele>10</ele>
        <time>2021-01-05T13:23:42Z</time>
      </trkpt>
      <trkpt lat="47.80993" lon="-3.74561">
        <ele>9</ele>
        <time>2021-01-05T13:23:52Z</time>
      </trkpt>
      <trkpt lat="47.81008" lon="-3.74539">
        <ele>9</ele>
        <time>2021-01-05T13:24:20Z</time>
      </trkpt>
      <trkpt lat="47.81014" lon="-3.74537">
        <ele>9</ele>
        <time>2021-01-05T13:24:28Z</time>
      </trkpt>
      <trkpt lat="47.8102" lon="-3.74539">
        <ele>9</ele>
        <time>2021-01-05T13:24:36Z</time>
      </trkpt>
      <trkpt lat="47.81023" lon="-3.74551">
        <ele>10</ele>
        <time>2021-01-05T13:24:48Z</time>
      </trkpt>
      <trkpt lat="47.81039" lon="-3.74602">
        <ele>14</ele>
        <time>2021-01-05T13:25:38Z</time>
      </trkpt>
      <trkpt lat="47.81049" lon="-3.74614">
        <ele>16</ele>
        <time>2021-01-05T13:25:55Z</time>
      </trkpt>
      <trkpt lat="47.81059" lon="-3.74617">
        <ele>16</ele>
        <time>2021-01-05T13:26:09Z</time>
      </trkpt>
      <trkpt lat="47.81105" lon="-3.74656">
        <ele>20</ele>
        <time>2021-01-05T13:27:20Z</time>
      </trkpt>
      <trkpt lat="47.81124" lon="-3.7465">
        <ele>20</ele>
        <time>2021-01-05T13:27:46Z</time>
      </trkpt>
      <trkpt lat="47.81142" lon="-3.74662">
        <ele>21</ele>
        <time>2021-01-05T13:28:12Z</time>
      </trkpt>
      <trkpt lat="47.81256" lon="-3.74555">
        <ele>23</ele>
        <time>2021-01-05T13:31:12Z</time>
      </trkpt>
      <trkpt lat="47.81292" lon="-3.74496">
        <ele>20</ele>
        <time>2021-01-05T13:32:23Z</time>
      </trkpt>
      <trkpt lat="47.81321" lon="-3.74484">
        <ele>17</ele>
        <time>2021-01-05T13:33:03Z</time>
      </trkpt>
      <trkpt lat="47.81356" lon="-3.74498">
        <ele>16</ele>
        <time>2021-01-05T13:33:52Z</time>
      </trkpt>
      <trkpt lat="47.81372" lon="-3.74494">
        <ele>13</ele>
        <time>2021-01-05T13:34:13Z</time>
      </trkpt>
      <trkpt lat="47.81395" lon="-3.74503">
        <ele>10</ele>
        <time>2021-01-05T13:34:45Z</time>
      </trkpt>
      <trkpt lat="47.81408" lon="-3.74521">
        <ele>10</ele>
        <time>2021-01-05T13:35:09Z</time>
      </trkpt>
      <trkpt lat="47.81429" lon="-3.74604">
        <ele>16</ele>
        <time>2021-01-05T13:36:28Z</time>
      </trkpt>
      <trkpt lat="47.8144" lon="-3.7466">
        <ele>17</ele>
        <time>2021-01-05T13:37:21Z</time>
      </trkpt>
      <trkpt lat="47.81439" lon="-3.74694">
        <ele>18</ele>
        <time>2021-01-05T13:37:51Z</time>
      </trkpt>
      <trkpt lat="47.81443" lon="-3.74711">
        <ele>17</ele>
        <time>2021-01-05T13:38:07Z</time>
      </trkpt>
      <trkpt lat="47.81441" lon="-3.74796">
        <ele>16</ele>
        <time>2021-01-05T13:39:23Z</time>
      </trkpt>
      <trkpt lat="47.81446" lon="-3.74802">
        <ele>15</ele>
        <time>2021-01-05T13:39:32Z</time>
      </trkpt>
      <trkpt lat="47.81459" lon="-3.74803">
        <ele>14</ele>
        <time>2021-01-05T13:39:49Z</time>
      </trkpt>
      <trkpt lat="47.81492" lon="-3.74834">
        <ele>12</ele>
        <time>2021-01-05T13:40:41Z</time>
      </trkpt>
      <trkpt lat="47.81525" lon="-3.74859">
        <ele>8</ele>
        <time>2021-01-05T13:41:31Z</time>
      </trkpt>
      <trkpt lat="47.81523" lon="-3.74879">
        <ele>6</ele>
        <time>2021-01-05T13:41:49Z</time>
      </trkpt>
      <trkpt lat="47.81508" lon="-3.74893">
        <ele>6</ele>
        <time>2021-01-05T13:42:13Z</time>
      </trkpt>
      <trkpt lat="47.81501" lon="-3.74893">
        <ele>7</ele>
        <time>2021-01-05T13:42:22Z</time>
      </trkpt>
      <trkpt lat="47.8145" lon="-3.74858">
        <ele>12</ele>
        <time>2021-01-05T13:43:37Z</time>
      </trkpt>
      <trkpt lat="47.81419" lon="-3.74855">
        <ele>14</ele>
        <time>2021-01-05T13:44:18Z</time>
      </trkpt>
      <trkpt lat="47.81358" lon="-3.74876">
        <ele>13</ele>
        <time>2021-01-05T13:45:42Z</time>
      </trkpt>
      <trkpt lat="47.81344" lon="-3.74899">
        <ele>12</ele>
        <time>2021-01-05T13:46:10Z</time>
      </trkpt>
      <trkpt lat="47.81336" lon="-3.74917">
        <ele>11</ele>
        <time>2021-01-05T13:46:29Z</time>
      </trkpt>
      <trkpt lat="47.81344" lon="-3.74947">
        <ele>14</ele>
        <time>2021-01-05T13:46:58Z</time>
      </trkpt>
      <trkpt lat="47.81356" lon="-3.74967">
        <ele>16</ele>
        <time>2021-01-05T13:47:22Z</time>
      </trkpt>
      <trkpt lat="47.81373" lon="-3.74981">
        <ele>15</ele>
        <time>2021-01-05T13:47:48Z</time>
      </trkpt>
      <trkpt lat="47.81392" lon="-3.74988">
        <ele>13</ele>
        <time>2021-01-05T13:48:14Z</time>
      </trkpt>
      <trkpt lat="47.81418" lon="-3.74988">
        <ele>10</ele>
        <time>2021-01-05T13:48:49Z</time>
      </trkpt>
      <trkpt lat="47.81427" lon="-3.74995">
        <ele>10</ele>
        <time>2021-01-05T13:49:02Z</time>
      </trkpt>
      <trkpt lat="47.81452" lon="-3.75031">
        <ele>8</ele>
        <time>2021-01-05T13:49:49Z</time>
      </trkpt>
      <trkpt lat="47.81441" lon="-3.75054">
        <ele>10</ele>
        <time>2021-01-05T13:50:14Z</time>
      </trkpt>
      <trkpt lat="47.8143" lon="-3.75086">
        <ele>13</ele>
        <time>2021-01-05T13:50:46Z</time>
      </trkpt>
      <trkpt lat="47.81428" lon="-3.75096">
        <ele>13</ele>
        <time>2021-01-05T13:50:56Z</time>
      </trkpt>
      <trkpt lat="47.81422" lon="-3.75118">
        <ele>13</ele>
        <time>2021-01-05T13:51:17Z</time>
      </trkpt>
      <trkpt lat="47.81406" lon="-3.75138">
        <ele>14</ele>
        <time>2021-01-05T13:51:45Z</time>
      </trkpt>
      <trkpt lat="47.81402" lon="-3.75157">
        <ele>14</ele>
        <time>2021-01-05T13:52:03Z</time>
      </trkpt>
      <trkpt lat="47.81421" lon="-3.75194">
        <ele>13</ele>
        <time>2021-01-05T13:52:44Z</time>
      </trkpt>
      <trkpt lat="47.81436" lon="-3.75204">
        <ele>13</ele>
        <time>2021-01-05T13:53:06Z</time>
      </trkpt>
      <trkpt lat="47.8145" lon="-3.75203">
        <ele>13</ele>
        <time>2021-01-05T13:53:25Z</time>
      </trkpt>
      <trkpt lat="47.81454" lon="-3.752">
        <ele>12</ele>
        <time>2021-01-05T13:53:31Z</time>
      </trkpt>
      <trkpt lat="47.81469" lon="-3.75187">
        <ele>11</ele>
        <time>2021-01-05T13:53:54Z</time>
      </trkpt>
      <trkpt lat="47.81488" lon="-3.75187">
        <ele>10</ele>
        <time>2021-01-05T13:54:19Z</time>
      </trkpt>
      <trkpt lat="47.81495" lon="-3.75176">
        <ele>8</ele>
        <time>2021-01-05T13:54:33Z</time>
      </trkpt>
      <trkpt lat="47.81517" lon="-3.75194">
        <ele>10</ele>
        <time>2021-01-05T13:55:06Z</time>
      </trkpt>
      <trkpt lat="47.81549" lon="-3.75205">
        <ele>10</ele>
        <time>2021-01-05T13:55:50Z</time>
      </trkpt>
      <trkpt lat="47.81579" lon="-3.75222">
        <ele>11</ele>
        <time>2021-01-05T13:56:33Z</time>
      </trkpt>
      <trkpt lat="47.81604" lon="-3.7526">
        <ele>12</ele>
        <time>2021-01-05T13:57:21Z</time>
      </trkpt>
      <trkpt lat="47.81629" lon="-3.75299">
        <ele>9</ele>
        <time>2021-01-05T13:58:09Z</time>
      </trkpt>
      <trkpt lat="47.81634" lon="-3.75313">
        <ele>9</ele>
        <time>2021-01-05T13:58:23Z</time>
      </trkpt>
      <trkpt lat="47.81631" lon="-3.7533">
        <ele>10</ele>
        <time>2021-01-05T13:58:39Z</time>
      </trkpt>
      <trkpt lat="47.81596" lon="-3.75344">
        <ele>15</ele>
        <time>2021-01-05T13:59:27Z</time>
      </trkpt>
      <trkpt lat="47.81551" lon="-3.75392">
        <ele>16</ele>
        <time>2021-01-05T14:00:41Z</time>
      </trkpt>
      <trkpt lat="47.81544" lon="-3.75411">
        <ele>15</ele>
        <time>2021-01-05T14:01:01Z</time>
      </trkpt>
      <trkpt lat="47.81549" lon="-3.7543">
        <ele>15</ele>
        <time>2021-01-05T14:01:19Z</time>
      </trkpt>
      <trkpt lat="47.8157" lon="-3.75425">
        <ele>13</ele>
        <time>2021-01-05T14:01:47Z</time>
      </trkpt>
      <trkpt lat="47.816" lon="-3.75442">
        <ele>12</ele>
        <time>2021-01-05T14:02:30Z</time>
      </trkpt>
      <trkpt lat="47.81624" lon="-3.75421">
        <ele>10</ele>
        <time>2021-01-05T14:03:07Z</time>
      </trkpt>
      <trkpt lat="47.8164" lon="-3.75417">
        <ele>10</ele>
        <time>2021-01-05T14:03:29Z</time>
      </trkpt>
      <trkpt lat="47.81653" lon="-3.75422">
        <ele>10</ele>
        <time>2021-01-05T14:03:47Z</time>
      </trkpt>
      <trkpt lat="47.81665" lon="-3.75414">
        <ele>9</ele>
        <time>2021-01-05T14:04:04Z</time>
      </trkpt>
      <trkpt lat="47.81667" lon="-3.754">
        <ele>8</ele>
        <time>2021-01-05T14:04:17Z</time>
      </trkpt>
      <trkpt lat="47.81688" lon="-3.75377">
        <ele>6</ele>
        <time>2021-01-05T14:04:52Z</time>
      </trkpt>
      <trkpt lat="47.81694" lon="-3.75378">
        <ele>6</ele>
        <time>2021-01-05T14:05:00Z</time>
      </trkpt>
      <trkpt lat="47.81696" lon="-3.75383">
        <ele>6</ele>
        <time>2021-01-05T14:05:05Z</time>
      </trkpt>
      <trkpt lat="47.81692" lon="-3.75439">
        <ele>10</ele>
        <time>2021-01-05T14:05:56Z</time>
      </trkpt>
      <trkpt lat="47.81712" lon="-3.75459">
        <ele>10</ele>
        <time>2021-01-05T14:06:28Z</time>
      </trkpt>
      <trkpt lat="47.81713" lon="-3.755">
        <ele>12</ele>
        <time>2021-01-05T14:07:05Z</time>
      </trkpt>
      <trkpt lat="47.81683" lon="-3.75606">
        <ele>17</ele>
        <time>2021-01-05T14:08:48Z</time>
      </trkpt>
      <trkpt lat="47.81691" lon="-3.75627">
        <ele>15</ele>
        <time>2021-01-05T14:09:09Z</time>
      </trkpt>
      <trkpt lat="47.81695" lon="-3.75651">
        <ele>14</ele>
        <time>2021-01-05T14:09:32Z</time>
      </trkpt>
      <trkpt lat="47.81699" lon="-3.75659">
        <ele>13</ele>
        <time>2021-01-05T14:09:41Z</time>
      </trkpt>
      <trkpt lat="47.81698" lon="-3.75672">
        <ele>13</ele>
        <time>2021-01-05T14:09:52Z</time>
      </trkpt>
      <trkpt lat="47.81688" lon="-3.75684">
        <ele>14</ele>
        <time>2021-01-05T14:10:09Z</time>
      </trkpt>
      <trkpt lat="47.81672" lon="-3.75698">
        <ele>16</ele>
        <time>2021-01-05T14:10:34Z</time>
      </trkpt>
      <trkpt lat="47.81675" lon="-3.75706">
        <ele>15</ele>
        <time>2021-01-05T14:10:42Z</time>
      </trkpt>
      <trkpt lat="47.81644" lon="-3.75743">
        <ele>19</ele>
        <time>2021-01-05T14:11:35Z</time>
      </trkpt>
      <trkpt lat="47.81638" lon="-3.75797">
        <ele>19</ele>
        <time>2021-01-05T14:12:24Z</time>
      </trkpt>
      <trkpt lat="47.81631" lon="-3.75809">
        <ele>21</ele>
        <time>2021-01-05T14:12:39Z</time>
      </trkpt>
      <trkpt lat="47.81627" lon="-3.7582">
        <ele>21</ele>
        <time>2021-01-05T14:12:50Z</time>
      </trkpt>
      <trkpt lat="47.81625" lon="-3.75832">
        <ele>22</ele>
        <time>2021-01-05T14:13:01Z</time>
      </trkpt>
      <trkpt lat="47.81623" lon="-3.75874">
        <ele>21</ele>
        <time>2021-01-05T14:13:39Z</time>
      </trkpt>
      <trkpt lat="47.81623" lon="-3.7592">
        <ele>20</ele>
        <time>2021-01-05T14:14:20Z</time>
      </trkpt>
      <trkpt lat="47.8163" lon="-3.75922">
        <ele>19</ele>
        <time>2021-01-05T14:14:29Z</time>
      </trkpt>
      <trkpt lat="47.81641" lon="-3.75885">
        <ele>18</ele>
        <time>2021-01-05T14:15:06Z</time>
      </trkpt>
      <trkpt lat="47.81646" lon="-3.75882">
        <ele>18</ele>
        <time>2021-01-05T14:15:13Z</time>
      </trkpt>
      <trkpt lat="47.81649" lon="-3.75875">
        <ele>17</ele>
        <time>2021-01-05T14:15:20Z</time>
      </trkpt>
      <trkpt lat="47.81681" lon="-3.75799">
        <ele>14</ele>
        <time>2021-01-05T14:16:41Z</time>
      </trkpt>
      <trkpt lat="47.81707" lon="-3.75755">
        <ele>13</ele>
        <time>2021-01-05T14:17:33Z</time>
      </trkpt>
      <trkpt lat="47.8172" lon="-3.75747">
        <ele>12</ele>
        <time>2021-01-05T14:17:52Z</time>
      </trkpt>
      <trkpt lat="47.8173" lon="-3.75747">
        <ele>12</ele>
        <time>2021-01-05T14:18:05Z</time>
      </trkpt>
      <trkpt lat="47.81747" lon="-3.75726">
        <ele>9</ele>
        <time>2021-01-05T14:18:35Z</time>
      </trkpt>
      <trkpt lat="47.81756" lon="-3.75727">
        <ele>10</ele>
        <time>2021-01-05T14:18:47Z</time>
      </trkpt>
      <trkpt lat="47.81802" lon="-3.75752">
        <ele>12</ele>
        <time>2021-01-05T14:19:52Z</time>
      </trkpt>
      <trkpt lat="47.81824" lon="-3.75753">
        <ele>13</ele>
        <time>2021-01-05T14:20:22Z</time>
      </trkpt>
      <trkpt lat="47.81823" lon="-3.75743">
        <ele>12</ele>
        <time>2021-01-05T14:20:31Z</time>
      </trkpt>
      <trkpt lat="47.81828" lon="-3.75748">
        <ele>13</ele>
        <time>2021-01-05T14:20:39Z</time>
      </trkpt>
      <trkpt lat="47.81823" lon="-3.75743">
        <ele>12</ele>
        <time>2021-01-05T14:20:47Z</time>
      </trkpt>
      <trkpt lat="47.81822" lon="-3.75733">
        <ele>12</ele>
        <time>2021-01-05T14:20:56Z</time>
      </trkpt>
      <trkpt lat="47.81809" lon="-3.7571">
        <ele>10</ele>
        <time>2021-01-05T14:21:23Z</time>
      </trkpt>
      <trkpt lat="47.818" lon="-3.75681">
        <ele>8</ele>
        <time>2021-01-05T14:21:51Z</time>
      </trkpt>
      <trkpt lat="47.8179" lon="-3.75673">
        <ele>7</ele>
        <time>2021-01-05T14:22:06Z</time>
      </trkpt>
      <trkpt lat="47.81773" lon="-3.75644">
        <ele>6</ele>
        <time>2021-01-05T14:22:41Z</time>
      </trkpt>
      <trkpt lat="47.81763" lon="-3.75646">
        <ele>6</ele>
        <time>2021-01-05T14:22:54Z</time>
      </trkpt>
      <trkpt lat="47.81773" lon="-3.75631">
        <ele>6</ele>
        <time>2021-01-05T14:23:13Z</time>
      </trkpt>
      <trkpt lat="47.81802" lon="-3.75644">
        <ele>7</ele>
        <time>2021-01-05T14:23:54Z</time>
      </trkpt>
      <trkpt lat="47.81829" lon="-3.75629">
        <ele>8</ele>
        <time>2021-01-05T14:24:32Z</time>
      </trkpt>
      <trkpt lat="47.81846" lon="-3.75634">
        <ele>9</ele>
        <time>2021-01-05T14:24:55Z</time>
      </trkpt>
      <trkpt lat="47.81878" lon="-3.7563">
        <ele>11</ele>
        <time>2021-01-05T14:25:38Z</time>
      </trkpt>
      <trkpt lat="47.81905" lon="-3.75614">
        <ele>12</ele>
        <time>2021-01-05T14:26:17Z</time>
      </trkpt>
      <trkpt lat="47.82038" lon="-3.75539">
        <ele>13</ele>
        <time>2021-01-05T14:29:27Z</time>
      </trkpt>
      <trkpt lat="47.82098" lon="-3.75621">
        <ele>14</ele>
        <time>2021-01-05T14:31:15Z</time>
      </trkpt>
      <trkpt lat="47.82124" lon="-3.75642">
        <ele>15</ele>
        <time>2021-01-05T14:31:55Z</time>
      </trkpt>
      <trkpt lat="47.82134" lon="-3.75624">
        <ele>14</ele>
        <time>2021-01-05T14:32:16Z</time>
      </trkpt>
      <trkpt lat="47.82106" lon="-3.75539">
        <ele>13</ele>
        <time>2021-01-05T14:33:41Z</time>
      </trkpt>
      <trkpt lat="47.82115" lon="-3.75509">
        <ele>14</ele>
        <time>2021-01-05T14:34:10Z</time>
      </trkpt>
      <trkpt lat="47.82105" lon="-3.75495">
        <ele>14</ele>
        <time>2021-01-05T14:34:28Z</time>
      </trkpt>
      <trkpt lat="47.82089" lon="-3.7551">
        <ele>12</ele>
        <time>2021-01-05T14:34:54Z</time>
      </trkpt>
      <trkpt lat="47.82012" lon="-3.7544">
        <ele>14</ele>
        <time>2021-01-05T14:36:54Z</time>
      </trkpt>
      <trkpt lat="47.82052" lon="-3.75322">
        <ele>20</ele>
        <time>2021-01-05T14:38:53Z</time>
      </trkpt>
      <trkpt lat="47.82008" lon="-3.75197">
        <ele>21</ele>
        <time>2021-01-05T14:40:59Z</time>
      </trkpt>
      <trkpt lat="47.82083" lon="-3.75038">
        <ele>17</ele>
        <time>2021-01-05T14:43:53Z</time>
      </trkpt>
      <trkpt lat="47.82079" lon="-3.75007">
        <ele>17</ele>
        <time>2021-01-05T14:44:21Z</time>
      </trkpt>
      <trkpt lat="47.8209" lon="-3.75011">
        <ele>17</ele>
        <time>2021-01-05T14:44:36Z</time>
      </trkpt>
      <trkpt lat="47.82139" lon="-3.75016">
        <ele>18</ele>
        <time>2021-01-05T14:45:42Z</time>
      </trkpt>
      <trkpt lat="47.8215" lon="-3.7502">
        <ele>18</ele>
        <time>2021-01-05T14:45:57Z</time>
      </trkpt>
      <trkpt lat="47.82165" lon="-3.75031">
        <ele>18</ele>
        <time>2021-01-05T14:46:19Z</time>
      </trkpt>
      <trkpt lat="47.82193" lon="-3.74967">
        <ele>19</ele>
        <time>2021-01-05T14:47:28Z</time>
      </trkpt>
      <trkpt lat="47.82209" lon="-3.74942">
        <ele>20</ele>
        <time>2021-01-05T14:47:59Z</time>
      </trkpt>
      <trkpt lat="47.82218" lon="-3.74933">
        <ele>20</ele>
        <time>2021-01-05T14:48:13Z</time>
      </trkpt>
      <trkpt lat="47.82232" lon="-3.74931">
        <ele>21</ele>
        <time>2021-01-05T14:48:32Z</time>
      </trkpt>
      <trkpt lat="47.82242" lon="-3.7491">
        <ele>21</ele>
        <time>2021-01-05T14:48:55Z</time>
      </trkpt>
      <trkpt lat="47.82273" lon="-3.74873">
        <ele>20</ele>
        <time>2021-01-05T14:49:48Z</time>
      </trkpt>
      <trkpt lat="47.82287" lon="-3.74862">
        <ele>19</ele>
        <time>2021-01-05T14:50:09Z</time>
      </trkpt>
      <trkpt lat="47.82272" lon="-3.74843">
        <ele>20</ele>
        <time>2021-01-05T14:50:36Z</time>
      </trkpt>
      <trkpt lat="47.82287" lon="-3.74804">
        <ele>19</ele>
        <time>2021-01-05T14:51:16Z</time>
      </trkpt>
      <trkpt lat="47.82304" lon="-3.74767">
        <ele>19</ele>
        <time>2021-01-05T14:51:56Z</time>
      </trkpt>
      <trkpt lat="47.82322" lon="-3.74743">
        <ele>18</ele>
        <time>2021-01-05T14:52:28Z</time>
      </trkpt>
      <trkpt lat="47.8233" lon="-3.74735">
        <ele>18</ele>
        <time>2021-01-05T14:52:41Z</time>
      </trkpt>
      <trkpt lat="47.82342" lon="-3.74729">
        <ele>18</ele>
        <time>2021-01-05T14:52:58Z</time>
      </trkpt>
      <trkpt lat="47.82345" lon="-3.74723">
        <ele>17</ele>
        <time>2021-01-05T14:53:05Z</time>
      </trkpt>
      <trkpt lat="47.82342" lon="-3.74729">
        <ele>18</ele>
        <time>2021-01-05T14:53:11Z</time>
      </trkpt>
      <trkpt lat="47.82352" lon="-3.74737">
        <ele>17</ele>
        <time>2021-01-05T14:53:27Z</time>
      </trkpt>
      <trkpt lat="47.82363" lon="-3.74738">
        <ele>16</ele>
        <time>2021-01-05T14:53:41Z</time>
      </trkpt>
      <trkpt lat="47.82377" lon="-3.74733">
        <ele>15</ele>
        <time>2021-01-05T14:54:00Z</time>
      </trkpt>
      <trkpt lat="47.82407" lon="-3.74717">
        <ele>13</ele>
        <time>2021-01-05T14:54:43Z</time>
      </trkpt>
      <trkpt lat="47.82465" lon="-3.74703">
        <ele>9</ele>
        <time>2021-01-05T14:56:01Z</time>
      </trkpt>
      <trkpt lat="47.82483" lon="-3.74674">
        <ele>7</ele>
        <time>2021-01-05T14:56:37Z</time>
      </trkpt>
      <trkpt lat="47.82507" lon="-3.74657">
        <ele>6</ele>
        <time>2021-01-05T14:57:12Z</time>
      </trkpt>
      <trkpt lat="47.8251" lon="-3.74637">
        <ele>5</ele>
        <time>2021-01-05T14:57:31Z</time>
      </trkpt>
      <trkpt lat="47.82528" lon="-3.7463">
        <ele>4</ele>
        <time>2021-01-05T14:57:55Z</time>
      </trkpt>
      <trkpt lat="47.82562" lon="-3.74652">
        <ele>5</ele>
        <time>2021-01-05T14:58:45Z</time>
      </trkpt>
      <trkpt lat="47.82608" lon="-3.74628">
        <ele>5</ele>
        <time>2021-01-05T14:59:50Z</time>
      </trkpt>
      <trkpt lat="47.8261" lon="-3.7463">
        <ele>5</ele>
        <time>2021-01-05T14:59:53Z</time>
      </trkpt>
      <trkpt lat="47.82608" lon="-3.74712">
        <ele>8</ele>
        <time>2021-01-05T15:01:07Z</time>
      </trkpt>
      <trkpt lat="47.82609" lon="-3.74717">
        <ele>8</ele>
        <time>2021-01-05T15:01:11Z</time>
      </trkpt>
      <trkpt lat="47.82612" lon="-3.74715">
        <ele>8</ele>
        <time>2021-01-05T15:01:16Z</time>
      </trkpt>
      <trkpt lat="47.82614" lon="-3.74626">
        <ele>5</ele>
        <time>2021-01-05T15:02:36Z</time>
      </trkpt>
      <trkpt lat="47.82617" lon="-3.74622">
        <ele>4</ele>
        <time>2021-01-05T15:02:41Z</time>
      </trkpt>
      <trkpt lat="47.82614" lon="-3.74626">
        <ele>5</ele>
        <time>2021-01-05T15:02:46Z</time>
      </trkpt>
      <trkpt lat="47.82612" lon="-3.74715">
        <ele>8</ele>
        <time>2021-01-05T15:04:06Z</time>
      </trkpt>
      <trkpt lat="47.82483" lon="-3.75023">
        <ele>18</ele>
        <time>2021-01-05T15:09:31Z</time>
      </trkpt>
      <trkpt lat="47.82496" lon="-3.75045">
        <ele>18</ele>
        <time>2021-01-05T15:09:58Z</time>
      </trkpt>
      <trkpt lat="47.82508" lon="-3.75069">
        <ele>19</ele>
        <time>2021-01-05T15:10:24Z</time>
      </trkpt>
      <trkpt lat="47.82533" lon="-3.75178">
        <ele>22</ele>
        <time>2021-01-05T15:12:08Z</time>
      </trkpt>
      <trkpt lat="47.82544" lon="-3.75236">
        <ele>23</ele>
        <time>2021-01-05T15:13:02Z</time>
      </trkpt>
      <trkpt lat="47.82547" lon="-3.75235">
        <ele>23</ele>
        <time>2021-01-05T15:13:06Z</time>
      </trkpt>
      <trkpt lat="47.82555" lon="-3.7524">
        <ele>23</ele>
        <time>2021-01-05T15:13:17Z</time>
      </trkpt>
      <trkpt lat="47.82561" lon="-3.75254">
        <ele>24</ele>
        <time>2021-01-05T15:13:32Z</time>
      </trkpt>
      <trkpt lat="47.82566" lon="-3.7527">
        <ele>24</ele>
        <time>2021-01-05T15:13:48Z</time>
      </trkpt>
      <trkpt lat="47.82569" lon="-3.75305">
        <ele>24</ele>
        <time>2021-01-05T15:14:20Z</time>
      </trkpt>
      <trkpt lat="47.82569" lon="-3.75319">
        <ele>24</ele>
        <time>2021-01-05T15:14:32Z</time>
      </trkpt>
      <trkpt lat="47.82589" lon="-3.75307">
        <ele>24</ele>
        <time>2021-01-05T15:15:01Z</time>
      </trkpt>
      <trkpt lat="47.82713" lon="-3.75186">
        <ele>14</ele>
        <time>2021-01-05T15:18:19Z</time>
      </trkpt>
      <trkpt lat="47.82735" lon="-3.75183">
        <ele>12</ele>
        <time>2021-01-05T15:18:48Z</time>
      </trkpt>
      <trkpt lat="47.82772" lon="-3.75207">
        <ele>12</ele>
        <time>2021-01-05T15:19:42Z</time>
      </trkpt>
      <trkpt lat="47.82809" lon="-3.75288">
        <ele>18</ele>
        <time>2021-01-05T15:21:10Z</time>
      </trkpt>
      <trkpt lat="47.82841" lon="-3.75207">
        <ele>10</ele>
        <time>2021-01-05T15:22:34Z</time>
      </trkpt>
      <trkpt lat="47.82833" lon="-3.75165">
        <ele>6</ele>
        <time>2021-01-05T15:23:13Z</time>
      </trkpt>
      <trkpt lat="47.82833" lon="-3.7515">
        <ele>5</ele>
        <time>2021-01-05T15:23:27Z</time>
      </trkpt>
      <trkpt lat="47.82841" lon="-3.75139">
        <ele>4</ele>
        <time>2021-01-05T15:23:41Z</time>
      </trkpt>
      <trkpt lat="47.8285" lon="-3.7514">
        <ele>5</ele>
        <time>2021-01-05T15:23:53Z</time>
      </trkpt>
      <trkpt lat="47.82877" lon="-3.75175">
        <ele>9</ele>
        <time>2021-01-05T15:24:41Z</time>
      </trkpt>
      <trkpt lat="47.82923" lon="-3.75185">
        <ele>11</ele>
        <time>2021-01-05T15:25:43Z</time>
      </trkpt>
      <trkpt lat="47.82939" lon="-3.75171">
        <ele>8</ele>
        <time>2021-01-05T15:26:08Z</time>
      </trkpt>
      <trkpt lat="47.8295" lon="-3.75171">
        <ele>7</ele>
        <time>2021-01-05T15:26:22Z</time>
      </trkpt>
      <trkpt lat="47.82962" lon="-3.75188">
        <ele>9</ele>
        <time>2021-01-05T15:26:44Z</time>
      </trkpt>
      <trkpt lat="47.82972" lon="-3.75219">
        <ele>13</ele>
        <time>2021-01-05T15:27:15Z</time>
      </trkpt>
      <trkpt lat="47.82985" lon="-3.75225">
        <ele>14</ele>
        <time>2021-01-05T15:27:33Z</time>
      </trkpt>
      <trkpt lat="47.83" lon="-3.7522">
        <ele>12</ele>
        <time>2021-01-05T15:27:54Z</time>
      </trkpt>
      <trkpt lat="47.83023" lon="-3.75235">
        <ele>12</ele>
        <time>2021-01-05T15:28:27Z</time>
      </trkpt>
      <trkpt lat="47.83081" lon="-3.75305">
        <ele>14</ele>
        <time>2021-01-05T15:30:07Z</time>
      </trkpt>
      <trkpt lat="47.83114" lon="-3.75362">
        <ele>14</ele>
        <time>2021-01-05T15:31:15Z</time>
      </trkpt>
      <trkpt lat="47.83136" lon="-3.75429">
        <ele>17</ele>
        <time>2021-01-05T15:32:21Z</time>
      </trkpt>
      <trkpt lat="47.83173" lon="-3.75448">
        <ele>15</ele>
        <time>2021-01-05T15:33:14Z</time>
      </trkpt>
      <trkpt lat="47.83191" lon="-3.75466">
        <ele>15</ele>
        <time>2021-01-05T15:33:42Z</time>
      </trkpt>
      <trkpt lat="47.83208" lon="-3.75472">
        <ele>15</ele>
        <time>2021-01-05T15:34:06Z</time>
      </trkpt>
      <trkpt lat="47.83236" lon="-3.75473">
        <ele>13</ele>
        <time>2021-01-05T15:34:43Z</time>
      </trkpt>
      <trkpt lat="47.83266" lon="-3.75505">
        <ele>17</ele>
        <time>2021-01-05T15:35:32Z</time>
      </trkpt>
      <trkpt lat="47.8328" lon="-3.75512">
        <ele>17</ele>
        <time>2021-01-05T15:35:52Z</time>
      </trkpt>
      <trkpt lat="47.83294" lon="-3.75515">
        <ele>16</ele>
        <time>2021-01-05T15:36:11Z</time>
      </trkpt>
      <trkpt lat="47.83306" lon="-3.7551">
        <ele>15</ele>
        <time>2021-01-05T15:36:28Z</time>
      </trkpt>
      <trkpt lat="47.83382" lon="-3.75466">
        <ele>7</ele>
        <time>2021-01-05T15:38:16Z</time>
      </trkpt>
      <trkpt lat="47.83418" lon="-3.75459">
        <ele>6</ele>
        <time>2021-01-05T15:39:05Z</time>
      </trkpt>
      <trkpt lat="47.83429" lon="-3.75587">
        <ele>15</ele>
        <time>2021-01-05T15:41:00Z</time>
      </trkpt>
      <trkpt lat="47.83493" lon="-3.75638">
        <ele>11</ele>
        <time>2021-01-05T15:42:37Z</time>
      </trkpt>
      <trkpt lat="47.83503" lon="-3.75679">
        <ele>13</ele>
        <time>2021-01-05T15:43:16Z</time>
      </trkpt>
      <trkpt lat="47.83522" lon="-3.7571">
        <ele>13</ele>
        <time>2021-01-05T15:43:54Z</time>
      </trkpt>
      <trkpt lat="47.83522" lon="-3.75722">
        <ele>14</ele>
        <time>2021-01-05T15:44:05Z</time>
      </trkpt>
      <trkpt lat="47.83538" lon="-3.75722">
        <ele>13</ele>
        <time>2021-01-05T15:44:26Z</time>
      </trkpt>
      <trkpt lat="47.83546" lon="-3.75739">
        <ele>13</ele>
        <time>2021-01-05T15:44:45Z</time>
      </trkpt>
      <trkpt lat="47.83578" lon="-3.75736">
        <ele>10</ele>
        <time>2021-01-05T15:45:27Z</time>
      </trkpt>
      <trkpt lat="47.83592" lon="-3.75733">
        <ele>10</ele>
        <time>2021-01-05T15:45:46Z</time>
      </trkpt>
      <trkpt lat="47.83598" lon="-3.75731">
        <ele>10</ele>
        <time>2021-01-05T15:45:55Z</time>
      </trkpt>
      <trkpt lat="47.83601" lon="-3.75731">
        <ele>10</ele>
        <time>2021-01-05T15:45:59Z</time>
      </trkpt>
      <trkpt lat="47.83637" lon="-3.75732">
        <ele>13</ele>
        <time>2021-01-05T15:46:47Z</time>
      </trkpt>
      <trkpt lat="47.83642" lon="-3.75735">
        <ele>13</ele>
        <time>2021-01-05T15:46:54Z</time>
      </trkpt>
      <trkpt lat="47.83646" lon="-3.75739">
        <ele>13</ele>
        <time>2021-01-05T15:47:00Z</time>
      </trkpt>
      <trkpt lat="47.83652" lon="-3.75777">
        <ele>14</ele>
        <time>2021-01-05T15:47:35Z</time>
      </trkpt>
      <trkpt lat="47.83659" lon="-3.75802">
        <ele>14</ele>
        <time>2021-01-05T15:47:59Z</time>
      </trkpt>
      <trkpt lat="47.83663" lon="-3.75811">
        <ele>13</ele>
        <time>2021-01-05T15:48:09Z</time>
      </trkpt>
      <trkpt lat="47.83668" lon="-3.75818">
        <ele>14</ele>
        <time>2021-01-05T15:48:18Z</time>
      </trkpt>
      <trkpt lat="47.83675" lon="-3.75824">
        <ele>14</ele>
        <time>2021-01-05T15:48:29Z</time>
      </trkpt>
      <trkpt lat="47.83703" lon="-3.75833">
        <ele>18</ele>
        <time>2021-01-05T15:49:07Z</time>
      </trkpt>
      <trkpt lat="47.8375" lon="-3.75833">
        <ele>24</ele>
        <time>2021-01-05T15:50:10Z</time>
      </trkpt>
      <trkpt lat="47.83768" lon="-3.75837">
        <ele>26</ele>
        <time>2021-01-05T15:50:34Z</time>
      </trkpt>
      <trkpt lat="47.83856" lon="-3.75871">
        <ele>32</ele>
        <time>2021-01-05T15:52:36Z</time>
      </trkpt>
      <trkpt lat="47.83862" lon="-3.75874">
        <ele>33</ele>
        <time>2021-01-05T15:52:44Z</time>
      </trkpt>
      <trkpt lat="47.83873" lon="-3.75881">
        <ele>33</ele>
        <time>2021-01-05T15:53:00Z</time>
      </trkpt>
      <trkpt lat="47.83882" lon="-3.75831">
        <ele>29</ele>
        <time>2021-01-05T15:53:46Z</time>
      </trkpt>
      <trkpt lat="47.83907" lon="-3.75763">
        <ele>24</ele>
        <time>2021-01-05T15:54:56Z</time>
      </trkpt>
      <trkpt lat="47.83917" lon="-3.75749">
        <ele>24</ele>
        <time>2021-01-05T15:55:14Z</time>
      </trkpt>
      <trkpt lat="47.83975" lon="-3.75754">
        <ele>22</ele>
        <time>2021-01-05T15:56:32Z</time>
      </trkpt>
      <trkpt lat="47.83995" lon="-3.75717">
        <ele>20</ele>
        <time>2021-01-05T15:57:14Z</time>
      </trkpt>
      <trkpt lat="47.84014" lon="-3.7572">
        <ele>20</ele>
        <time>2021-01-05T15:57:40Z</time>
      </trkpt>
      <trkpt lat="47.84001" lon="-3.75682">
        <ele>18</ele>
        <time>2021-01-05T15:58:18Z</time>
      </trkpt>
      <trkpt lat="47.84014" lon="-3.7572">
        <ele>20</ele>
        <time>2021-01-05T15:58:56Z</time>
      </trkpt>
      <trkpt lat="47.84024" lon="-3.75702">
        <ele>20</ele>
        <time>2021-01-05T15:59:17Z</time>
      </trkpt>
      <trkpt lat="47.84036" lon="-3.75671">
        <ele>19</ele>
        <time>2021-01-05T15:59:49Z</time>
      </trkpt>
      <trkpt lat="47.84044" lon="-3.7566">
        <ele>19</ele>
        <time>2021-01-05T16:00:04Z</time>
      </trkpt>
      <trkpt lat="47.84058" lon="-3.75652">
        <ele>20</ele>
        <time>2021-01-05T16:00:24Z</time>
      </trkpt>
      <trkpt lat="47.84064" lon="-3.75643">
        <ele>20</ele>
        <time>2021-01-05T16:00:35Z</time>
      </trkpt>
      <trkpt lat="47.84076" lon="-3.75633">
        <ele>20</ele>
        <time>2021-01-05T16:00:53Z</time>
      </trkpt>
      <trkpt lat="47.84091" lon="-3.75626">
        <ele>20</ele>
        <time>2021-01-05T16:01:14Z</time>
      </trkpt>
      <trkpt lat="47.84102" lon="-3.75625">
        <ele>20</ele>
        <time>2021-01-05T16:01:29Z</time>
      </trkpt>
      <trkpt lat="47.84108" lon="-3.75627">
        <ele>20</ele>
        <time>2021-01-05T16:01:37Z</time>
      </trkpt>
      <trkpt lat="47.84113" lon="-3.75633">
        <ele>21</ele>
        <time>2021-01-05T16:01:46Z</time>
      </trkpt>
      <trkpt lat="47.84125" lon="-3.75657">
        <ele>22</ele>
        <time>2021-01-05T16:02:13Z</time>
      </trkpt>
      <trkpt lat="47.84131" lon="-3.75662">
        <ele>22</ele>
        <time>2021-01-05T16:02:22Z</time>
      </trkpt>
      <trkpt lat="47.84138" lon="-3.75652">
        <ele>22</ele>
        <time>2021-01-05T16:02:35Z</time>
      </trkpt>
      <trkpt lat="47.8415" lon="-3.75642">
        <ele>22</ele>
        <time>2021-01-05T16:02:53Z</time>
      </trkpt>
      <trkpt lat="47.84192" lon="-3.75619">
        <ele>21</ele>
        <time>2021-01-05T16:03:53Z</time>
      </trkpt>
      <trkpt lat="47.84211" lon="-3.75598">
        <ele>21</ele>
        <time>2021-01-05T16:04:24Z</time>
      </trkpt>
      <trkpt lat="47.84215" lon="-3.75573">
        <ele>21</ele>
        <time>2021-01-05T16:04:47Z</time>
      </trkpt>
      <trkpt lat="47.84274" lon="-3.75587">
        <ele>22</ele>
        <time>2021-01-05T16:06:07Z</time>
      </trkpt>
      <trkpt lat="47.84306" lon="-3.7555">
        <ele>20</ele>
        <time>2021-01-05T16:07:01Z</time>
      </trkpt>
      <trkpt lat="47.84367" lon="-3.75541">
        <ele>18</ele>
        <time>2021-01-05T16:08:23Z</time>
      </trkpt>
      <trkpt lat="47.84368" lon="-3.75535">
        <ele>17</ele>
        <time>2021-01-05T16:08:29Z</time>
      </trkpt>
      <trkpt lat="47.84393" lon="-3.75536">
        <ele>16</ele>
        <time>2021-01-05T16:09:02Z</time>
      </trkpt>
      <trkpt lat="47.84411" lon="-3.75513">
        <ele>13</ele>
        <time>2021-01-05T16:09:34Z</time>
      </trkpt>
      <trkpt lat="47.84466" lon="-3.75451">
        <ele>16</ele>
        <time>2021-01-05T16:11:06Z</time>
      </trkpt>
      <trkpt lat="47.84485" lon="-3.75406">
        <ele>17</ele>
        <time>2021-01-05T16:11:53Z</time>
      </trkpt>
      <trkpt lat="47.84466" lon="-3.75296">
        <ele>10</ele>
        <time>2021-01-05T16:13:35Z</time>
      </trkpt>
      <trkpt lat="47.8447" lon="-3.7526">
        <ele>8</ele>
        <time>2021-01-05T16:14:08Z</time>
      </trkpt>
      <trkpt lat="47.845" lon="-3.75242">
        <ele>6</ele>
        <time>2021-01-05T16:14:51Z</time>
      </trkpt>
      <trkpt lat="47.84535" lon="-3.75258">
        <ele>10</ele>
        <time>2021-01-05T16:15:40Z</time>
      </trkpt>
      <trkpt lat="47.84568" lon="-3.75258">
        <ele>13</ele>
        <time>2021-01-05T16:16:24Z</time>
      </trkpt>
      <trkpt lat="47.84589" lon="-3.75262">
        <ele>15</ele>
        <time>2021-01-05T16:16:52Z</time>
      </trkpt>
      <trkpt lat="47.8461" lon="-3.75251">
        <ele>14</ele>
        <time>2021-01-05T16:17:22Z</time>
      </trkpt>
      <trkpt lat="47.84641" lon="-3.75229">
        <ele>14</ele>
        <time>2021-01-05T16:18:07Z</time>
      </trkpt>
      <trkpt lat="47.84656" lon="-3.75238">
        <ele>15</ele>
        <time>2021-01-05T16:18:29Z</time>
      </trkpt>
      <trkpt lat="47.84661" lon="-3.75237">
        <ele>15</ele>
        <time>2021-01-05T16:18:36Z</time>
      </trkpt>
      <trkpt lat="47.8467" lon="-3.7524">
        <ele>16</ele>
        <time>2021-01-05T16:18:48Z</time>
      </trkpt>
      <trkpt lat="47.84683" lon="-3.75219">
        <ele>15</ele>
        <time>2021-01-05T16:19:14Z</time>
      </trkpt>
      <trkpt lat="47.84705" lon="-3.75194">
        <ele>12</ele>
        <time>2021-01-05T16:19:51Z</time>
      </trkpt>
      <trkpt lat="47.8472" lon="-3.75193">
        <ele>12</ele>
        <time>2021-01-05T16:20:11Z</time>
      </trkpt>
      <trkpt lat="47.84723" lon="-3.75183">
        <ele>11</ele>
        <time>2021-01-05T16:20:20Z</time>
      </trkpt>
      <trkpt lat="47.84723" lon="-3.75173">
        <ele>9</ele>
        <time>2021-01-05T16:20:29Z</time>
      </trkpt>
      <trkpt lat="47.84725" lon="-3.75127">
        <ele>7</ele>
        <time>2021-01-05T16:21:11Z</time>
      </trkpt>
      <trkpt lat="47.84731" lon="-3.75089">
        <ele>7</ele>
        <time>2021-01-05T16:21:46Z</time>
      </trkpt>
      <trkpt lat="47.84739" lon="-3.75058">
        <ele>7</ele>
        <time>2021-01-05T16:22:15Z</time>
      </trkpt>
      <trkpt lat="47.84752" lon="-3.75022">
        <ele>6</ele>
        <time>2021-01-05T16:22:52Z</time>
      </trkpt>
      <trkpt lat="47.84768" lon="-3.74993">
        <ele>7</ele>
        <time>2021-01-05T16:23:26Z</time>
      </trkpt>
      <trkpt lat="47.84774" lon="-3.74973">
        <ele>7</ele>
        <time>2021-01-05T16:23:45Z</time>
      </trkpt>
      <trkpt lat="47.84785" lon="-3.74956">
        <ele>7</ele>
        <time>2021-01-05T16:24:06Z</time>
      </trkpt>
      <trkpt lat="47.84792" lon="-3.74954">
        <ele>7</ele>
        <time>2021-01-05T16:24:16Z</time>
      </trkpt>
      <trkpt lat="47.84795" lon="-3.74948">
        <ele>7</ele>
        <time>2021-01-05T16:24:23Z</time>
      </trkpt>
    </trkseg>
  </trk>
</gpx>